sensor_id;sensor_type;location;lat;lon;timestamp;pressure;altitude;pressure_sealevel;temperature;humidity
64453;BME280;50813;52.654;6.766;2023-02-20T05:16:55;101967.0;;;6.96;100.0
64453;BME280;50813;52.654;6.766;2023-02-20T05:18:33;101968.0;;;6.95;100.0
64453;BME280;50813;52.654;6.766;2023-02-20T05:20:10;101958.0;;;6.95;100.0
64453;BME280;50813;52.654;6.766;2023-02-20T05:22:23;101956.0;;;7.0;100.0
64453;BME280;50813;52.654;6.766;2023-02-20T05:24:00;101955.0;;;6.96;100.0
64453;BME280;50813;52.654;6.766;2023-02-20T05:27:15;101942.0;;;6.97;100.0
64453;BME280;50813;52.654;6.766;2023-02-20T05:28:53;101935.0;;;6.97;100.0
64453;BME280;50813;52.654;6.766;2023-02-20T05:30:30;101936.0;;;7.05;100.0
64453;BME280;50813;52.654;6.766;2023-02-20T05:32:07;101931.0;;;7.06;100.0
64453;BME280;50813;52.654;6.766;2023-02-20T05:35:21;101934.0;;;7.14;100.0
64453;BME280;50813;52.654;6.766;2023-02-20T05:36:58;101937.0;;;7.05;100.0
64453;BME280;50813;52.654;6.766;2023-02-20T05:38:34;101930.0;;;7.18;100.0
64453;BME280;50813;52.654;6.766;2023-02-20T05:41:48;101936.0;;;7.18;100.0
64453;BME280;50813;52.654;6.766;2023-02-20T05:43:24;101932.0;;;7.17;100.0
64453;BME280;50813;52.654;6.766;2023-02-20T05:45:03;101923.0;;;7.11;100.0
64453;BME280;50813;52.654;6.766;2023-02-20T05:46:41;101930.0;;;7.12;100.0
64453;BME280;50813;52.654;6.766;2023-02-20T05:49:55;101926.0;;;7.17;100.0
64453;BME280;50813;52.654;6.766;2023-02-20T05:51:31;101918.0;;;7.16;100.0
64453;BME280;50813;52.654;6.766;2023-02-20T05:53:08;101918.0;;;7.21;100.0
64453;BME280;50813;52.654;6.766;2023-02-20T05:56:22;101910.0;;;7.2;100.0
64453;BME280;50813;52.654;6.766;2023-02-20T05:57:59;101913.0;;;7.24;100.0
64453;BME280;50813;52.654;6.766;2023-02-20T05:59:36;101905.0;;;7.24;100.0
64453;BME280;50813;52.654;6.766;2023-02-20T06:01:17;101908.0;;;7.26;100.0
64453;BME280;50813;52.654;6.766;2023-02-20T06:04:30;101905.0;;;7.21;100.0
64453;BME280;50813;52.654;6.766;2023-02-20T06:06:06;101902.0;;;7.23;100.0
64453;BME280;50813;52.654;6.766;2023-02-20T06:07:43;101898.0;;;7.28;100.0
64453;BME280;50813;52.654;6.766;2023-02-20T06:10:56;101894.0;;;7.34;100.0
64453;BME280;50813;52.654;6.766;2023-02-20T06:12:33;101892.0;;;7.41;100.0
64453;BME280;50813;52.654;6.766;2023-02-20T06:14:10;101888.0;;;7.37;100.0
64453;BME280;50813;52.654;6.766;2023-02-20T06:17:24;101890.0;;;7.39;100.0
64453;BME280;50813;52.654;6.766;2023-02-20T06:19:01;101890.0;;;7.38;100.0
64453;BME280;50813;52.654;6.766;2023-02-20T06:20:38;101890.0;;;7.37;100.0
64453;BME280;50813;52.654;6.766;2023-02-20T06:22:15;101893.0;;;7.47;100.0
64453;BME280;50813;52.654;6.766;2023-02-20T06:25:29;101892.0;;;7.48;100.0
64453;BME280;50813;52.654;6.766;2023-02-20T06:27:07;101889.0;;;7.46;100.0
64453;BME280;50813;52.654;6.766;2023-02-20T06:28:44;101895.0;;;7.52;100.0
64453;BME280;50813;52.654;6.766;2023-02-20T06:31:58;101893.0;;;7.49;100.0
64453;BME280;50813;52.654;6.766;2023-02-20T06:35:12;101895.0;;;7.58;100.0
64453;BME280;50813;52.654;6.766;2023-02-20T06:36:50;101900.0;;;7.63;100.0
64453;BME280;50813;52.654;6.766;2023-02-20T06:40:05;101899.0;;;7.65;100.0
64453;BME280;50813;52.654;6.766;2023-02-20T06:41:43;101903.0;;;7.69;100.0
64453;BME280;50813;52.654;6.766;2023-02-20T06:43:19;101897.0;;;7.71;100.0
64453;BME280;50813;52.654;6.766;2023-02-20T06:46:33;101901.0;;;7.76;100.0
64453;BME280;50813;52.654;6.766;2023-02-20T06:48:10;101896.0;;;7.76;100.0
64453;BME280;50813;52.654;6.766;2023-02-20T06:49:48;101899.0;;;7.77;100.0
64453;BME280;50813;52.654;6.766;2023-02-20T06:53:03;101897.0;;;7.8;100.0
64453;BME280;50813;52.654;6.766;2023-02-20T06:54:42;101898.0;;;7.82;100.0
64453;BME280;50813;52.654;6.766;2023-02-20T06:56:20;101897.0;;;7.82;100.0
64453;BME280;50813;52.654;6.766;2023-02-20T06:57:59;101911.0;;;7.9;100.0
64453;BME280;50813;52.654;6.766;2023-02-20T07:01:22;101900.0;;;7.83;100.0
64453;BME280;50813;52.654;6.766;2023-02-20T07:02:59;101898.0;;;7.92;100.0
64453;BME280;50813;52.654;6.766;2023-02-20T07:04:37;101901.0;;;7.87;100.0
64453;BME280;50813;52.654;6.766;2023-02-20T07:06:14;101910.0;;;7.87;100.0
64453;BME280;50813;52.654;6.766;2023-02-20T07:09:28;101910.0;;;7.91;100.0
64453;BME280;50813;52.654;6.766;2023-02-20T07:11:05;101922.0;;;7.96;100.0
64453;BME280;50813;52.654;6.766;2023-02-20T07:12:42;101927.0;;;8.01;100.0
64453;BME280;50813;52.654;6.766;2023-02-20T07:15:56;101926.0;;;8.02;100.0
64453;BME280;50813;52.654;6.766;2023-02-20T07:17:33;101933.0;;;8.03;100.0
64453;BME280;50813;52.654;6.766;2023-02-20T07:19:10;101932.0;;;8.09;100.0
64453;BME280;50813;52.654;6.766;2023-02-20T07:20:48;101934.0;;;8.14;100.0
64453;BME280;50813;52.654;6.766;2023-02-20T07:24:05;101937.0;;;8.1;100.0
64453;BME280;50813;52.654;6.766;2023-02-20T07:25:42;101936.0;;;8.1;100.0
64453;BME280;50813;52.654;6.766;2023-02-20T07:27:20;101936.0;;;8.15;100.0
64453;BME280;50813;52.654;6.766;2023-02-20T07:30:35;101935.0;;;8.17;100.0
64453;BME280;50813;52.654;6.766;2023-02-20T07:32:12;101921.0;;;8.1;100.0
64453;BME280;50813;52.654;6.766;2023-02-20T07:33:49;101931.0;;;8.14;100.0
64453;BME280;50813;52.654;6.766;2023-02-20T07:35:26;101931.0;;;8.19;100.0
64453;BME280;50813;52.654;6.766;2023-02-20T07:38:40;101931.0;;;8.23;100.0
64453;BME280;50813;52.654;6.766;2023-02-20T07:40:18;101930.0;;;8.26;100.0
64453;BME280;50813;52.654;6.766;2023-02-20T07:41:55;101927.0;;;8.23;100.0
64453;BME280;50813;52.654;6.766;2023-02-20T07:45:08;101931.0;;;8.23;100.0
64453;BME280;50813;52.654;6.766;2023-02-20T07:46:46;101920.0;;;8.2;100.0
64453;BME280;50813;52.654;6.766;2023-02-20T07:48:22;101920.0;;;8.18;100.0
64453;BME280;50813;52.654;6.766;2023-02-20T07:49:59;101920.0;;;8.22;100.0
64453;BME280;50813;52.654;6.766;2023-02-20T07:53:14;101916.0;;;8.22;100.0
64453;BME280;50813;52.654;6.766;2023-02-20T07:54:51;101911.0;;;8.25;100.0
64453;BME280;50813;52.654;6.766;2023-02-20T07:56:27;101913.0;;;8.3;100.0
64453;BME280;50813;52.654;6.766;2023-02-20T07:59:41;101905.0;;;8.25;100.0
64453;BME280;50813;52.654;6.766;2023-02-20T08:01:18;101906.0;;;8.36;100.0
64453;BME280;50813;52.654;6.766;2023-02-20T08:02:55;101909.0;;;8.33;100.0
64453;BME280;50813;52.654;6.766;2023-02-20T08:06:07;101908.0;;;8.38;100.0
64453;BME280;50813;52.654;6.766;2023-02-20T08:07:44;101910.0;;;8.32;100.0
64453;BME280;50813;52.654;6.766;2023-02-20T08:09:20;101906.0;;;8.32;100.0
64453;BME280;50813;52.654;6.766;2023-02-20T08:10:57;101899.0;;;8.35;100.0
64453;BME280;50813;52.654;6.766;2023-02-20T08:14:12;101903.0;;;8.35;100.0
64453;BME280;50813;52.654;6.766;2023-02-20T08:15:49;101890.0;;;8.34;100.0
64453;BME280;50813;52.654;6.766;2023-02-20T08:17:25;101901.0;;;8.39;100.0
64453;BME280;50813;52.654;6.766;2023-02-20T08:20:38;101898.0;;;8.42;100.0
64453;BME280;50813;52.654;6.766;2023-02-20T08:22:14;101901.0;;;8.48;100.0
64453;BME280;50813;52.654;6.766;2023-02-20T08:23:51;101890.0;;;8.48;100.0
64453;BME280;50813;52.654;6.766;2023-02-20T08:27:03;101894.0;;;8.41;100.0
64453;BME280;50813;52.654;6.766;2023-02-20T08:28:41;101889.0;;;8.43;100.0
64453;BME280;50813;52.654;6.766;2023-02-20T08:30:20;101900.0;;;8.52;100.0
64453;BME280;50813;52.654;6.766;2023-02-20T08:31:58;101909.0;;;8.56;100.0
64453;BME280;50813;52.654;6.766;2023-02-20T08:35:11;101902.0;;;8.59;100.0
64453;BME280;50813;52.654;6.766;2023-02-20T08:36:47;101905.0;;;8.66;100.0
64453;BME280;50813;52.654;6.766;2023-02-20T08:38:27;101903.0;;;8.64;100.0
64453;BME280;50813;52.654;6.766;2023-02-20T08:41:46;101900.0;;;8.64;100.0
64453;BME280;50813;52.654;6.766;2023-02-20T08:43:22;101903.0;;;8.67;100.0
64453;BME280;50813;52.654;6.766;2023-02-20T08:44:59;101909.0;;;8.66;100.0
64453;BME280;50813;52.654;6.766;2023-02-20T08:46:36;101916.0;;;8.65;100.0
64453;BME280;50813;52.654;6.766;2023-02-20T08:49:48;101925.0;;;8.66;100.0
64453;BME280;50813;52.654;6.766;2023-02-20T08:51:25;101928.0;;;8.64;100.0
64453;BME280;50813;52.654;6.766;2023-02-20T08:53:01;101918.0;;;8.61;100.0
64453;BME280;50813;52.654;6.766;2023-02-20T08:56:17;101909.0;;;8.58;100.0
64453;BME280;50813;52.654;6.766;2023-02-20T08:57:55;101919.0;;;8.68;100.0
64453;BME280;50813;52.654;6.766;2023-02-20T08:59:31;101920.0;;;8.64;100.0
64453;BME280;50813;52.654;6.766;2023-02-20T09:01:07;101916.0;;;8.68;100.0
64453;BME280;50813;52.654;6.766;2023-02-20T09:04:23;101919.0;;;8.72;100.0
64453;BME280;50813;52.654;6.766;2023-02-20T09:06:00;101913.0;;;8.67;100.0
64453;BME280;50813;52.654;6.766;2023-02-20T09:07:36;101915.0;;;8.65;100.0
64453;BME280;50813;52.654;6.766;2023-02-20T09:10:48;101908.0;;;8.66;100.0
64453;BME280;50813;52.654;6.766;2023-02-20T09:12:24;101914.0;;;8.71;100.0
64453;BME280;50813;52.654;6.766;2023-02-20T09:14:01;101911.0;;;8.69;100.0
64453;BME280;50813;52.654;6.766;2023-02-20T09:17:15;101909.0;;;8.74;100.0
64453;BME280;50813;52.654;6.766;2023-02-20T09:18:54;101903.0;;;8.75;100.0
64453;BME280;50813;52.654;6.766;2023-02-20T09:20:31;101911.0;;;8.77;100.0
64453;BME280;50813;52.654;6.766;2023-02-20T09:22:07;101908.0;;;8.81;100.0
64453;BME280;50813;52.654;6.766;2023-02-20T09:25:21;101910.0;;;8.8;100.0
64453;BME280;50813;52.654;6.766;2023-02-20T09:26:57;101911.0;;;8.84;100.0
64453;BME280;50813;52.654;6.766;2023-02-20T09:28:33;101905.0;;;8.86;100.0
64453;BME280;50813;52.654;6.766;2023-02-20T09:31:52;101915.0;;;8.89;100.0
64453;BME280;50813;52.654;6.766;2023-02-20T09:33:29;101910.0;;;8.86;100.0
64453;BME280;50813;52.654;6.766;2023-02-20T09:35:05;101920.0;;;8.84;100.0
64453;BME280;50813;52.654;6.766;2023-02-20T09:36:41;101925.0;;;8.89;100.0
64453;BME280;50813;52.654;6.766;2023-02-20T09:39:53;101911.0;;;8.85;100.0
64453;BME280;50813;52.654;6.766;2023-02-20T09:41:40;101917.0;;;8.83;100.0
64453;BME280;50813;52.654;6.766;2023-02-20T09:43:29;101896.0;;;8.85;100.0
64453;BME280;50813;52.654;6.766;2023-02-20T09:45:18;101892.0;;;8.9;100.0
64453;BME280;50813;52.654;6.766;2023-02-20T09:48:52;101891.0;;;8.98;100.0
64453;BME280;50813;52.654;6.766;2023-02-20T09:50:48;101882.0;;;8.92;100.0
64453;BME280;50813;52.654;6.766;2023-02-20T09:52:27;101885.0;;;9.0;100.0
64453;BME280;50813;52.654;6.766;2023-02-20T09:54:08;101869.0;;;8.98;100.0
64453;BME280;50813;52.654;6.766;2023-02-20T09:55:47;101894.0;;;8.97;100.0
64453;BME280;50813;52.654;6.766;2023-02-20T09:59:09;101907.0;;;9.03;100.0
64453;BME280;50813;52.654;6.766;2023-02-20T10:00:49;101909.0;;;9.03;100.0
64453;BME280;50813;52.654;6.766;2023-02-20T10:02:29;101896.0;;;8.97;100.0
64453;BME280;50813;52.654;6.766;2023-02-20T10:04:09;101917.0;;;9.0;100.0
64453;BME280;50813;52.654;6.766;2023-02-20T10:07:27;101905.0;;;9.01;100.0
64453;BME280;50813;52.654;6.766;2023-02-20T10:09:09;101897.0;;;9.02;100.0
64453;BME280;50813;52.654;6.766;2023-02-20T10:10:49;101898.0;;;9.03;100.0
64453;BME280;50813;52.654;6.766;2023-02-20T10:12:30;101898.0;;;9.03;100.0
64453;BME280;50813;52.654;6.766;2023-02-20T10:16:19;101893.0;;;9.08;100.0
64453;BME280;50813;52.654;6.766;2023-02-20T10:18:08;101898.0;;;9.13;100.0
64453;BME280;50813;52.654;6.766;2023-02-20T10:19:55;101909.0;;;9.14;100.0
64453;BME280;50813;52.654;6.766;2023-02-20T10:21:48;101903.0;;;9.16;100.0
64453;BME280;50813;52.654;6.766;2023-02-20T10:23:36;101900.0;;;9.09;100.0
64453;BME280;50813;52.654;6.766;2023-02-20T10:25:22;101883.0;;;9.1;100.0
64453;BME280;50813;52.654;6.766;2023-02-20T10:27:13;101898.0;;;9.14;100.0
64453;BME280;50813;52.654;6.766;2023-02-20T10:30:55;101900.0;;;9.21;100.0
64453;BME280;50813;52.654;6.766;2023-02-20T10:32:40;101893.0;;;9.24;100.0
64453;BME280;50813;52.654;6.766;2023-02-20T10:34:22;101885.0;;;9.19;100.0
64453;BME280;50813;52.654;6.766;2023-02-20T10:36:08;101892.0;;;9.24;100.0
64453;BME280;50813;52.654;6.766;2023-02-20T10:37:52;101897.0;;;9.24;100.0
64453;BME280;50813;52.654;6.766;2023-02-20T10:39:31;101898.0;;;9.23;100.0
64453;BME280;50813;52.654;6.766;2023-02-20T10:43:01;101887.0;;;9.21;100.0
64453;BME280;50813;52.654;6.766;2023-02-20T10:44:45;101918.0;;;9.23;100.0
64453;BME280;50813;52.654;6.766;2023-02-20T10:46:29;101926.0;;;9.21;100.0
64453;BME280;50813;52.654;6.766;2023-02-20T10:48:09;101921.0;;;9.1;100.0
64453;BME280;50813;52.654;6.766;2023-02-20T10:51:36;101911.0;;;9.08;100.0
64453;BME280;50813;52.654;6.766;2023-02-20T10:53:21;101913.0;;;9.09;100.0
64453;BME280;50813;52.654;6.766;2023-02-20T10:55:07;101925.0;;;9.08;100.0
64453;BME280;50813;52.654;6.766;2023-02-20T10:56:54;101933.0;;;9.21;100.0
64453;BME280;50813;52.654;6.766;2023-02-20T10:58:36;101926.0;;;9.15;100.0
64453;BME280;50813;52.654;6.766;2023-02-20T11:01:59;101924.0;;;9.15;100.0
64453;BME280;50813;52.654;6.766;2023-02-20T11:03:44;101917.0;;;9.09;100.0
64453;BME280;50813;52.654;6.766;2023-02-20T11:05:25;101927.0;;;9.15;100.0
64453;BME280;50813;52.654;6.766;2023-02-20T11:07:07;101931.0;;;9.18;100.0
64453;BME280;50813;52.654;6.766;2023-02-20T11:08:47;101937.0;;;9.23;100.0
64453;BME280;50813;52.654;6.766;2023-02-20T11:12:00;101926.0;;;9.26;100.0
64453;BME280;50813;52.654;6.766;2023-02-20T11:13:38;101926.0;;;9.21;100.0
64453;BME280;50813;52.654;6.766;2023-02-20T11:15:16;101927.0;;;9.18;100.0
64453;BME280;50813;52.654;6.766;2023-02-20T11:18:37;101933.0;;;9.28;100.0
64453;BME280;50813;52.654;6.766;2023-02-20T11:20:46;101917.0;;;9.19;100.0
64453;BME280;50813;52.654;6.766;2023-02-20T11:22:38;101912.0;;;9.17;100.0
64453;BME280;50813;52.654;6.766;2023-02-20T11:24:26;101919.0;;;9.23;100.0
64453;BME280;50813;52.654;6.766;2023-02-20T11:26:39;101911.0;;;9.32;100.0
64453;BME280;50813;52.654;6.766;2023-02-20T11:28:18;101907.0;;;9.26;100.0
64453;BME280;50813;52.654;6.766;2023-02-20T11:30:01;101898.0;;;9.23;100.0
64453;BME280;50813;52.654;6.766;2023-02-20T11:33:18;101900.0;;;9.28;100.0
64453;BME280;50813;52.654;6.766;2023-02-20T11:35:32;101902.0;;;9.27;100.0
64453;BME280;50813;52.654;6.766;2023-02-20T11:37:11;101896.0;;;9.34;100.0
64453;BME280;50813;52.654;6.766;2023-02-20T11:38:55;101892.0;;;9.24;100.0
64453;BME280;50813;52.654;6.766;2023-02-20T11:40:33;101892.0;;;9.38;100.0
64453;BME280;50813;52.654;6.766;2023-02-20T11:44:05;101902.0;;;9.35;100.0
64453;BME280;50813;52.654;6.766;2023-02-20T11:46:09;101896.0;;;9.39;100.0
64453;BME280;50813;52.654;6.766;2023-02-20T11:48:06;101909.0;;;9.44;100.0
64453;BME280;50813;52.654;6.766;2023-02-20T11:49:43;101902.0;;;9.44;100.0
64453;BME280;50813;52.654;6.766;2023-02-20T11:51:31;101896.0;;;9.41;100.0
64453;BME280;50813;52.654;6.766;2023-02-20T11:53:18;101878.0;;;9.39;100.0
64453;BME280;50813;52.654;6.766;2023-02-20T11:55:08;101881.0;;;9.4;100.0
64453;BME280;50813;52.654;6.766;2023-02-20T11:56:54;101890.0;;;9.36;100.0
64453;BME280;50813;52.654;6.766;2023-02-20T12:00:18;101884.0;;;9.4;100.0
64453;BME280;50813;52.654;6.766;2023-02-20T12:02:10;101889.0;;;9.41;100.0
64453;BME280;50813;52.654;6.766;2023-02-20T12:03:54;101892.0;;;9.48;100.0
64453;BME280;50813;52.654;6.766;2023-02-20T12:05:39;101896.0;;;9.4;100.0
64453;BME280;50813;52.654;6.766;2023-02-20T12:07:26;101896.0;;;9.48;100.0
64453;BME280;50813;52.654;6.766;2023-02-20T12:10:48;101890.0;;;9.42;100.0
64453;BME280;50813;52.654;6.766;2023-02-20T12:12:31;101885.0;;;9.47;100.0
64453;BME280;50813;52.654;6.766;2023-02-20T12:14:10;101883.0;;;9.48;100.0
64453;BME280;50813;52.654;6.766;2023-02-20T12:15:54;101866.0;;;9.5;100.0
64453;BME280;50813;52.654;6.766;2023-02-20T12:19:37;101869.0;;;9.51;100.0
64453;BME280;50813;52.654;6.766;2023-02-20T12:21:26;101873.0;;;9.53;100.0
64453;BME280;50813;52.654;6.766;2023-02-20T12:23:17;101868.0;;;9.53;100.0
64453;BME280;50813;52.654;6.766;2023-02-20T12:25:19;101866.0;;;9.59;100.0
64453;BME280;50813;52.654;6.766;2023-02-20T12:27:01;101862.0;;;9.64;100.0
64453;BME280;50813;52.654;6.766;2023-02-20T12:28:46;101867.0;;;9.65;100.0
64453;BME280;50813;52.654;6.766;2023-02-20T12:30:39;101871.0;;;9.65;100.0
64453;BME280;50813;52.654;6.766;2023-02-20T12:34:40;101871.0;;;9.61;100.0
64453;BME280;50813;52.654;6.766;2023-02-20T12:36:28;101867.0;;;9.64;100.0
64453;BME280;50813;52.654;6.766;2023-02-20T12:38:31;101871.0;;;9.64;100.0
64453;BME280;50813;52.654;6.766;2023-02-20T12:40:32;101859.0;;;9.68;100.0
64453;BME280;50813;52.654;6.766;2023-02-20T12:42:24;101861.0;;;9.68;100.0
64453;BME280;50813;52.654;6.766;2023-02-20T12:44:17;101872.0;;;9.69;100.0
64453;BME280;50813;52.654;6.766;2023-02-20T12:46:08;101860.0;;;9.69;100.0
64453;BME280;50813;52.654;6.766;2023-02-20T12:48:00;101861.0;;;9.64;100.0
64453;BME280;50813;52.654;6.766;2023-02-20T12:50:24;101860.0;;;9.71;100.0
64453;BME280;50813;52.654;6.766;2023-02-20T12:53:03;101872.0;;;9.68;100.0
64453;BME280;50813;52.654;6.766;2023-02-20T12:54:50;101870.0;;;9.66;100.0
64453;BME280;50813;52.654;6.766;2023-02-20T12:56:48;101865.0;;;9.71;100.0
64453;BME280;50813;52.654;6.766;2023-02-20T12:58:37;101872.0;;;9.69;100.0
64453;BME280;50813;52.654;6.766;2023-02-20T13:00:27;101858.0;;;9.71;100.0
64453;BME280;50813;52.654;6.766;2023-02-20T13:02:17;101856.0;;;9.68;100.0
64453;BME280;50813;52.654;6.766;2023-02-20T13:04:02;101860.0;;;9.74;100.0
64453;BME280;50813;52.654;6.766;2023-02-20T13:07:25;101873.0;;;9.72;100.0
64453;BME280;50813;52.654;6.766;2023-02-20T13:09:12;101851.0;;;9.64;100.0
64453;BME280;50813;52.654;6.766;2023-02-20T13:10:54;101852.0;;;9.68;100.0
64453;BME280;50813;52.654;6.766;2023-02-20T13:12:32;101856.0;;;9.64;100.0
64453;BME280;50813;52.654;6.766;2023-02-20T13:16:03;101855.0;;;9.64;100.0
64453;BME280;50813;52.654;6.766;2023-02-20T13:17:46;101864.0;;;9.64;100.0
64453;BME280;50813;52.654;6.766;2023-02-20T13:19:31;101845.0;;;9.67;100.0
64453;BME280;50813;52.654;6.766;2023-02-20T13:21:13;101849.0;;;9.73;100.0
64453;BME280;50813;52.654;6.766;2023-02-20T13:23:26;101844.0;;;9.64;100.0
64453;BME280;50813;52.654;6.766;2023-02-20T13:25:39;101840.0;;;9.63;100.0
64453;BME280;50813;52.654;6.766;2023-02-20T13:27:33;101833.0;;;9.57;100.0
64453;BME280;50813;52.654;6.766;2023-02-20T13:29:11;101825.0;;;9.58;100.0
64453;BME280;50813;52.654;6.766;2023-02-20T13:32:45;101827.0;;;9.55;100.0
64453;BME280;50813;52.654;6.766;2023-02-20T13:34:34;101831.0;;;9.59;100.0
64453;BME280;50813;52.654;6.766;2023-02-20T13:36:18;101826.0;;;9.57;100.0
64453;BME280;50813;52.654;6.766;2023-02-20T13:38:26;101820.0;;;9.63;100.0
64453;BME280;50813;52.654;6.766;2023-02-20T13:40:34;101826.0;;;9.64;100.0
64453;BME280;50813;52.654;6.766;2023-02-20T13:42:32;101814.0;;;9.64;100.0
64453;BME280;50813;52.654;6.766;2023-02-20T13:44:40;101820.0;;;9.65;100.0
64453;BME280;50813;52.654;6.766;2023-02-20T13:46:54;101807.0;;;9.63;100.0
64453;BME280;50813;52.654;6.766;2023-02-20T13:48:42;101807.0;;;9.66;100.0
64453;BME280;50813;52.654;6.766;2023-02-20T13:50:30;101805.0;;;9.69;100.0
64453;BME280;50813;52.654;6.766;2023-02-20T13:52:30;101809.0;;;9.68;100.0
64453;BME280;50813;52.654;6.766;2023-02-20T13:54:23;101811.0;;;9.63;100.0
64453;BME280;50813;52.654;6.766;2023-02-20T13:56:13;101811.0;;;9.71;100.0
64453;BME280;50813;52.654;6.766;2023-02-20T13:59:31;101809.0;;;9.76;100.0
64453;BME280;50813;52.654;6.766;2023-02-20T14:01:08;101817.0;;;9.77;100.0
64453;BME280;50813;52.654;6.766;2023-02-20T14:02:43;101809.0;;;9.75;100.0
64453;BME280;50813;52.654;6.766;2023-02-20T14:06:04;101808.0;;;9.8;100.0
64453;BME280;50813;52.654;6.766;2023-02-20T14:07:44;101805.0;;;9.81;100.0
64453;BME280;50813;52.654;6.766;2023-02-20T14:09:25;101800.0;;;9.89;100.0
64453;BME280;50813;52.654;6.766;2023-02-20T14:11:04;101796.0;;;9.83;100.0
64453;BME280;50813;52.654;6.766;2023-02-20T14:14:26;101794.0;;;9.78;100.0
64453;BME280;50813;52.654;6.766;2023-02-20T14:16:23;101793.0;;;9.74;100.0
64453;BME280;50813;52.654;6.766;2023-02-20T14:18:13;101784.0;;;9.68;100.0
64453;BME280;50813;52.654;6.766;2023-02-20T14:19:56;101784.0;;;9.73;100.0
64453;BME280;50813;52.654;6.766;2023-02-20T14:21:35;101780.0;;;9.84;100.0
64453;BME280;50813;52.654;6.766;2023-02-20T14:25:20;101775.0;;;9.78;100.0
64453;BME280;50813;52.654;6.766;2023-02-20T14:27:23;101771.0;;;9.76;100.0
64453;BME280;50813;52.654;6.766;2023-02-20T14:29:00;101770.0;;;9.74;100.0
64453;BME280;50813;52.654;6.766;2023-02-20T14:30:37;101773.0;;;9.74;100.0
64453;BME280;50813;52.654;6.766;2023-02-20T14:32:13;101772.0;;;9.73;100.0
64453;BME280;50813;52.654;6.766;2023-02-20T14:33:51;101776.0;;;9.85;100.0
64453;BME280;50813;52.654;6.766;2023-02-20T14:37:41;101774.0;;;9.8;100.0
64453;BME280;50813;52.654;6.766;2023-02-20T14:39:33;101775.0;;;9.81;100.0
64453;BME280;50813;52.654;6.766;2023-02-20T14:41:27;101778.0;;;9.86;100.0
64453;BME280;50813;52.654;6.766;2023-02-20T14:43:13;101777.0;;;9.85;100.0
64453;BME280;50813;52.654;6.766;2023-02-20T14:44:55;101776.0;;;9.8;100.0
64453;BME280;50813;52.654;6.766;2023-02-20T14:46:35;101788.0;;;9.83;100.0
64453;BME280;50813;52.654;6.766;2023-02-20T14:50:12;101776.0;;;9.82;100.0
64453;BME280;50813;52.654;6.766;2023-02-20T14:51:51;101790.0;;;9.88;100.0
64453;BME280;50813;52.654;6.766;2023-02-20T14:53:38;101771.0;;;9.86;100.0
64453;BME280;50813;52.654;6.766;2023-02-20T14:55:17;101785.0;;;9.89;100.0
64453;BME280;50813;52.654;6.766;2023-02-20T14:56:53;101788.0;;;9.92;100.0
64453;BME280;50813;52.654;6.766;2023-02-20T15:00:24;101796.0;;;9.92;100.0
64453;BME280;50813;52.654;6.766;2023-02-20T15:02:16;101797.0;;;9.98;100.0
64453;BME280;50813;52.654;6.766;2023-02-20T15:03:58;101799.0;;;9.96;100.0
64453;BME280;50813;52.654;6.766;2023-02-20T15:05:40;101790.0;;;9.92;100.0
64453;BME280;50813;52.654;6.766;2023-02-20T15:07:19;101791.0;;;9.96;100.0
64453;BME280;50813;52.654;6.766;2023-02-20T15:10:39;101795.0;;;9.94;100.0
64453;BME280;50813;52.654;6.766;2023-02-20T15:12:20;101794.0;;;9.97;100.0
64453;BME280;50813;52.654;6.766;2023-02-20T15:13:58;101782.0;;;9.98;100.0
64453;BME280;50813;52.654;6.766;2023-02-20T15:15:38;101780.0;;;9.94;100.0
64453;BME280;50813;52.654;6.766;2023-02-20T15:18:59;101797.0;;;9.98;100.0
64453;BME280;50813;52.654;6.766;2023-02-20T15:20:38;101786.0;;;10.02;100.0
64453;BME280;50813;52.654;6.766;2023-02-20T15:22:26;101790.0;;;10.02;100.0
64453;BME280;50813;52.654;6.766;2023-02-20T15:24:38;101794.0;;;10.06;100.0
64453;BME280;50813;52.654;6.766;2023-02-20T15:26:32;101797.0;;;10.07;100.0
64453;BME280;50813;52.654;6.766;2023-02-20T15:28:12;101802.0;;;10.14;100.0
64453;BME280;50813;52.654;6.766;2023-02-20T15:31:57;101799.0;;;10.1;100.0
64453;BME280;50813;52.654;6.766;2023-02-20T15:33:36;101787.0;;;10.06;100.0
64453;BME280;50813;52.654;6.766;2023-02-20T15:35:20;101790.0;;;10.06;100.0
64453;BME280;50813;52.654;6.766;2023-02-20T15:36:58;101788.0;;;10.05;100.0
64453;BME280;50813;52.654;6.766;2023-02-20T15:40:20;101788.0;;;10.08;100.0
64453;BME280;50813;52.654;6.766;2023-02-20T15:41:57;101782.0;;;10.08;100.0
64453;BME280;50813;52.654;6.766;2023-02-20T15:43:34;101783.0;;;10.06;100.0
64453;BME280;50813;52.654;6.766;2023-02-20T15:45:11;101780.0;;;10.13;100.0
64453;BME280;50813;52.654;6.766;2023-02-20T15:48:24;101780.0;;;10.1;100.0
64453;BME280;50813;52.654;6.766;2023-02-20T15:50:01;101778.0;;;10.11;100.0
64453;BME280;50813;52.654;6.766;2023-02-20T15:51:39;101774.0;;;10.09;100.0
64453;BME280;50813;52.654;6.766;2023-02-20T15:53:19;101782.0;;;9.99;100.0
64453;BME280;50813;52.654;6.766;2023-02-20T15:56:34;101778.0;;;10.09;100.0
64453;BME280;50813;52.654;6.766;2023-02-20T15:58:20;101781.0;;;10.13;100.0
64453;BME280;50813;52.654;6.766;2023-02-20T16:00:02;101787.0;;;10.1;100.0
64453;BME280;50813;52.654;6.766;2023-02-20T16:01:39;101787.0;;;10.1;100.0
64453;BME280;50813;52.654;6.766;2023-02-20T16:04:53;101793.0;;;10.08;100.0
64453;BME280;50813;52.654;6.766;2023-02-20T16:06:29;101793.0;;;10.09;100.0
64453;BME280;50813;52.654;6.766;2023-02-20T16:08:05;101794.0;;;10.07;100.0
64453;BME280;50813;52.654;6.766;2023-02-20T16:11:19;101805.0;;;10.06;100.0
64453;BME280;50813;52.654;6.766;2023-02-20T16:12:56;101795.0;;;10.1;100.0
64453;BME280;50813;52.654;6.766;2023-02-20T16:14:35;101796.0;;;10.05;100.0
64453;BME280;50813;52.654;6.766;2023-02-20T16:17:54;101800.0;;;10.08;100.0
64453;BME280;50813;52.654;6.766;2023-02-20T16:19:30;101806.0;;;10.09;100.0
64453;BME280;50813;52.654;6.766;2023-02-20T16:21:08;101795.0;;;10.09;100.0
64453;BME280;50813;52.654;6.766;2023-02-20T16:22:46;101798.0;;;10.06;100.0
64453;BME280;50813;52.654;6.766;2023-02-20T16:25:59;101798.0;;;10.0;100.0
64453;BME280;50813;52.654;6.766;2023-02-20T16:27:35;101805.0;;;9.93;100.0
64453;BME280;50813;52.654;6.766;2023-02-20T16:29:15;101806.0;;;9.94;100.0